Dundee, Michigan
Current Conditions -  °F | °C
As of 3:33 AM on Monday 24 Nov 2014 (Local Time) from KTTF Reporting Station
Drizzle Drizzle  
Wind Chill: 55°   Ceiling: 1300
Heat Index: 55°   Visibility: 5mi
Dew Point: 55°   Wind: 20mph
Humidity: 100%   Direction: 190°S
Pressure: 29.08"   Gusts: 26mph
Location:  41.96°N, 83.66°W
Report Text: KTTF 240833Z AUTO 19017G23KT 5SM DZ BKN013 OVC021 13/13 A2908 RMK AO2
Loading
Personal Weather Stations






























Interactive Weather Map New forecast layout! Learn more

10-Day Weather Forecast

Advertisements
Track Severe Weather on mobile